createdAt,value
2019-01-23T00:01:53.455Z,49.40
2019-01-23T00:04:24.415Z,50.80
2019-01-23T00:06:55.481Z,46.17
2019-01-23T00:09:26.376Z,56.33
2019-01-23T00:11:57.273Z,49.30
2019-01-23T00:14:28.279Z,48.03
2019-01-23T00:16:59.259Z,51.17
2019-01-23T00:19:30.120Z,52.83
2019-01-23T00:22:00.995Z,58.87
2019-01-23T00:24:31.892Z,54.90
2019-01-23T00:27:02.894Z,52.20
2019-01-23T00:29:33.922Z,53.53
2019-01-23T00:32:06.050Z,52.13
2019-01-23T00:34:37.242Z,53.47
2019-01-23T00:37:08.866Z,63.70
2019-01-23T00:39:40.038Z,52.90
2019-01-23T00:42:11.170Z,51.07
2019-01-23T00:44:42.272Z,60.80
2019-01-23T00:47:13.366Z,64.03
2019-01-23T00:49:44.344Z,57.27
2019-01-23T00:52:15.715Z,55.50
2019-01-23T00:54:46.769Z,50.07
2019-01-23T00:57:17.965Z,66.27
2019-01-23T00:59:48.982Z,60.40
2019-01-23T01:02:20.166Z,59.77
2019-01-23T01:04:51.432Z,60.00
2019-01-23T01:07:23.156Z,64.00
2019-01-23T01:09:54.428Z,57.83
2019-01-23T01:12:27.013Z,60.53
2019-01-23T01:14:57.891Z,60.33
2019-01-23T01:17:28.974Z,63.97
2019-01-23T01:20:00.090Z,62.30
2019-01-23T01:22:31.317Z,59.80
2019-01-23T01:25:02.292Z,60.23
2019-01-23T01:27:33.326Z,57.87
2019-01-23T01:30:06.522Z,56.93
2019-01-23T01:32:37.448Z,60.33
2019-01-23T01:35:08.704Z,65.20
2019-01-23T01:37:42.707Z,63.40
2019-01-23T01:40:15.732Z,56.77
2019-01-23T01:42:46.892Z,61.90
2019-01-23T01:45:19.674Z,64.80
2019-01-23T01:47:50.825Z,51.70
2019-01-23T01:50:22.434Z,60.87
2019-01-23T01:52:53.534Z,63.93
2019-01-23T01:55:24.458Z,60.03
2019-01-23T01:58:00.311Z,62.50
2019-01-23T02:00:31.408Z,61.10
2019-01-23T02:03:02.475Z,64.77
2019-01-23T02:05:33.548Z,62.40
2019-01-23T02:08:04.558Z,64.37
2019-01-23T02:10:35.629Z,61.80
2019-01-23T02:13:06.570Z,64.57
2019-01-23T02:15:37.680Z,62.17
2019-01-23T02:18:08.884Z,65.23
2019-01-23T02:20:40.138Z,57.87
2019-01-23T02:23:11.124Z,66.27
2019-01-23T02:25:42.212Z,57.57
2019-01-23T02:28:13.167Z,67.17
2019-01-23T02:30:44.028Z,61.37
2019-01-23T02:33:15.031Z,62.80
2019-01-23T02:35:46.006Z,69.93
2019-01-23T02:38:16.921Z,66.07
2019-01-23T02:40:47.815Z,69.03
2019-01-23T02:43:18.738Z,59.53
2019-01-23T02:45:49.777Z,68.10
2019-01-23T02:48:29.724Z,70.40
2019-01-23T02:51:00.626Z,65.70
2019-01-23T02:53:31.787Z,57.77
2019-01-23T02:56:02.750Z,67.63
2019-01-23T02:58:33.809Z,67.43
2019-01-23T03:01:04.959Z,66.97
2019-01-23T03:03:35.991Z,68.97
2019-01-23T03:06:07.134Z,89.13
2019-01-23T03:08:38.233Z,66.80
2019-01-23T03:11:09.160Z,64.73
2019-01-23T03:13:40.228Z,73.23
2019-01-23T03:16:11.266Z,62.30
2019-01-23T03:18:42.247Z,68.43
2019-01-23T03:21:25.174Z,70.37
2019-01-23T03:23:56.154Z,67.90
2019-01-23T03:26:27.008Z,71.90
2019-01-23T03:28:57.920Z,62.60
2019-01-23T03:31:28.811Z,80.17
2019-01-23T03:33:59.758Z,72.63
2019-01-23T03:36:30.776Z,71.93
2019-01-23T03:39:01.773Z,73.03
2019-01-23T03:41:34.315Z,68.37
2019-01-23T03:44:05.500Z,67.90
2019-01-23T03:46:36.475Z,73.63
2019-01-23T03:49:07.480Z,78.10
2019-01-23T03:51:38.391Z,80.67
2019-01-23T03:54:09.318Z,72.50
2019-01-23T03:56:40.493Z,71.10
2019-01-23T03:59:11.949Z,78.00
2019-01-23T04:01:42.995Z,84.10
2019-01-23T04:04:14.267Z,75.93
2019-01-23T04:06:45.280Z,73.07
2019-01-23T04:09:16.457Z,82.10
2019-01-23T04:11:47.388Z,76.33
2019-01-23T04:14:18.352Z,78.33
2019-01-23T04:16:49.470Z,77.17
2019-01-23T04:19:20.714Z,73.57
2019-01-23T04:21:51.698Z,83.53
2019-01-23T04:24:22.777Z,85.37
2019-01-23T04:26:53.652Z,74.60
2019-01-23T04:29:24.589Z,82.90
2019-01-23T04:31:55.458Z,73.73
2019-01-23T04:34:26.367Z,78.33
2019-01-23T04:36:58.144Z,77.93
2019-01-23T04:39:29.136Z,79.60
2019-01-23T04:42:00.088Z,85.13
2019-01-23T04:44:31.122Z,76.30
2019-01-23T04:47:02.038Z,79.13
2019-01-23T04:49:32.923Z,78.17
2019-01-23T04:52:10.051Z,77.60
2019-01-23T04:54:40.903Z,78.20
2019-01-23T04:57:11.894Z,79.77
2019-01-23T04:59:47.025Z,80.17
2019-01-23T05:02:15.579Z,79.13
2019-01-23T05:04:46.547Z,74.90
2019-01-23T05:07:17.831Z,77.77
2019-01-23T05:09:48.810Z,83.23
2019-01-23T05:12:19.671Z,78.83
2019-01-23T05:14:50.606Z,82.10
2019-01-23T05:17:21.526Z,83.13
2019-01-23T05:19:52.519Z,78.97
2019-01-23T05:22:23.621Z,78.90
2019-01-23T05:24:54.671Z,85.67
2019-01-23T05:27:25.764Z,72.93
2019-01-23T05:29:57.373Z,74.93
2019-01-23T05:32:28.586Z,83.70
2019-01-23T05:34:59.677Z,82.67
2019-01-23T05:37:30.817Z,84.87
2019-01-23T05:40:01.943Z,74.03
2019-01-23T05:42:34.127Z,79.53
2019-01-23T05:45:06.171Z,78.57
2019-01-23T05:47:37.290Z,81.83
2019-01-23T05:50:13.953Z,87.50
2019-01-23T05:52:44.795Z,87.33
2019-01-23T05:55:16.008Z,81.10
2019-01-23T05:57:46.997Z,80.77
2019-01-23T06:00:20.639Z,72.87
2019-01-23T06:02:51.673Z,79.93
2019-01-23T06:05:23.124Z,76.70
2019-01-23T06:07:54.168Z,76.50
2019-01-23T06:10:25.316Z,83.80
2019-01-23T06:12:56.317Z,65.47
2019-01-23T06:15:27.285Z,78.47
2019-01-23T06:17:58.184Z,87.57
2019-01-23T06:20:29.047Z,73.43
2019-01-23T06:23:00.024Z,75.23
2019-01-23T06:25:30.988Z,77.83
2019-01-23T06:28:01.890Z,84.07
2019-01-23T06:30:32.852Z,79.83
2019-01-23T06:33:03.914Z,76.00
2019-01-23T06:35:35.047Z,71.17
2019-01-23T06:38:06.074Z,73.53
2019-01-23T06:40:37.182Z,80.97
2019-01-23T06:43:08.479Z,75.00
2019-01-23T06:45:39.681Z,66.80
2019-01-23T06:48:13.731Z,65.43
2019-01-23T06:50:44.698Z,79.67
2019-01-23T06:53:15.678Z,77.13
2019-01-23T06:55:49.811Z,78.70
2019-01-23T06:58:21.646Z,73.87
2019-01-23T07:00:52.756Z,73.37
2019-01-23T07:03:23.935Z,75.17
2019-01-23T07:05:54.937Z,79.00
2019-01-23T07:08:25.840Z,75.40
2019-01-23T07:10:56.810Z,74.97
2019-01-23T07:13:28.781Z,67.30
2019-01-23T07:15:59.861Z,84.17
2019-01-23T07:18:30.828Z,75.97
2019-01-23T07:21:01.794Z,76.50
2019-01-23T07:23:32.706Z,80.97
2019-01-23T07:26:03.707Z,93.70
2019-01-23T07:28:34.719Z,76.43
2019-01-23T07:31:05.776Z,86.93
2019-01-23T07:33:36.668Z,79.17
2019-01-23T07:36:07.646Z,74.87
2019-01-23T07:38:38.759Z,83.83
2019-01-23T07:41:09.786Z,77.50
2019-01-23T07:43:45.094Z,69.13
2019-01-23T07:46:18.275Z,69.53
2019-01-23T07:48:49.634Z,80.53
2019-01-23T07:51:21.130Z,78.07
2019-01-23T07:53:52.215Z,81.10
2019-01-23T07:56:23.373Z,70.90
2019-01-23T07:58:54.392Z,76.07
2019-01-23T08:01:25.758Z,77.50
2019-01-23T08:03:57.036Z,73.50
2019-01-23T08:06:28.324Z,72.27
2019-01-23T08:09:00.410Z,72.87
2019-01-23T08:11:32.174Z,68.60
2019-01-23T08:14:03.267Z,76.83
2019-01-23T08:16:34.507Z,68.47
2019-01-23T08:19:05.611Z,76.87
2019-01-23T08:21:37.575Z,84.30
2019-01-23T08:24:09.510Z,86.67
2019-01-23T08:26:40.677Z,65.93
2019-01-23T08:29:11.806Z,76.57
2019-01-23T08:31:42.817Z,77.47
2019-01-23T08:34:13.820Z,62.97
2019-01-23T08:36:44.705Z,77.73
2019-01-23T08:39:15.837Z,65.33
2019-01-23T08:41:46.881Z,73.60
2019-01-23T08:44:17.809Z,70.17
2019-01-23T08:46:48.732Z,74.57
2019-01-23T08:49:19.612Z,73.33
2019-01-23T08:51:50.591Z,80.90
2019-01-23T08:54:21.507Z,68.93
2019-01-23T08:56:52.621Z,72.90
2019-01-23T08:59:23.583Z,67.57
2019-01-23T09:01:54.567Z,67.77
2019-01-23T09:04:25.531Z,69.97
2019-01-23T09:06:56.565Z,68.67
2019-01-23T09:09:28.336Z,69.97
2019-01-23T09:11:59.541Z,72.67
2019-01-23T09:14:32.771Z,77.63
2019-01-23T09:17:04.155Z,74.40
2019-01-23T09:19:35.267Z,68.63
2019-01-23T09:22:06.515Z,71.07
2019-01-23T09:24:37.563Z,82.70
2019-01-23T09:27:08.639Z,76.03
2019-01-23T09:29:41.146Z,79.47
2019-01-23T09:33:10.841Z,77.03
2019-01-23T09:36:00.710Z,80.60
2019-01-23T09:39:32.628Z,74.17
2019-01-23T09:42:47.747Z,73.23
2019-01-23T09:46:08.373Z,73.80
2019-01-23T09:49:29.968Z,83.77
2019-01-23T09:52:59.342Z,74.47
2019-01-23T09:55:30.261Z,78.30
2019-01-23T09:58:06.455Z,73.60
2019-01-23T10:00:37.597Z,78.23
2019-01-23T10:03:09.053Z,76.97
2019-01-23T10:05:40.499Z,67.07
2019-01-23T10:08:12.653Z,84.70
2019-01-23T10:10:43.849Z,63.87
2019-01-23T10:13:15.409Z,73.70
2019-01-23T10:16:14.143Z,83.27
2019-01-23T10:18:48.489Z,92.80
2019-01-23T10:21:19.797Z,85.53
2019-01-23T10:23:51.005Z,79.67
2019-01-23T10:26:22.145Z,85.00
2019-01-23T10:28:53.063Z,76.17
2019-01-23T10:31:24.367Z,92.67
2019-01-23T10:33:55.366Z,82.27
2019-01-23T10:36:26.479Z,84.63
2019-01-23T10:38:57.476Z,73.83
2019-01-23T10:41:28.424Z,77.27
2019-01-23T10:43:59.900Z,91.00
2019-01-23T10:46:31.062Z,80.53
2019-01-23T10:49:01.986Z,65.47
2019-01-23T10:51:33.041Z,68.60
2019-01-23T10:54:04.098Z,88.57
2019-01-23T10:56:35.217Z,67.70
2019-01-23T10:59:06.163Z,69.03
2019-01-23T11:01:37.273Z,82.27
2019-01-23T11:04:08.387Z,80.97
2019-01-23T11:06:39.367Z,70.40
2019-01-23T11:09:10.636Z,82.10
2019-01-23T11:11:41.920Z,87.50
2019-01-23T11:14:12.957Z,86.07
2019-01-23T11:16:43.995Z,85.57
2019-01-23T11:19:14.935Z,70.63
2019-01-23T11:21:46.874Z,83.10
2019-01-23T11:24:17.750Z,71.53
2019-01-23T11:26:50.060Z,75.73
2019-01-23T11:29:20.978Z,69.87
2019-01-23T11:31:52.611Z,83.30
2019-01-23T11:34:23.647Z,74.57
2019-01-23T11:36:57.510Z,74.33
2019-01-23T11:39:29.016Z,74.97
2019-01-23T11:42:02.318Z,64.03
2019-01-23T11:44:33.392Z,76.37
2019-01-23T11:47:05.751Z,75.17
2019-01-23T11:49:36.620Z,65.40
2019-01-23T11:52:07.883Z,75.47
2019-01-23T11:54:38.964Z,70.47
2019-01-23T11:57:10.113Z,80.10
2019-01-23T11:59:40.983Z,95.13
2019-01-23T12:02:12.125Z,73.90
2019-01-23T12:04:44.133Z,76.83
2019-01-23T12:07:16.767Z,73.80
2019-01-23T12:09:47.718Z,74.60
2019-01-23T12:12:18.775Z,71.27
2019-01-23T12:14:49.919Z,84.70
2019-01-23T12:17:20.905Z,75.87
2019-01-23T12:19:52.999Z,74.20
2019-01-23T12:22:24.126Z,88.70
2019-01-23T12:24:55.263Z,73.90
2019-01-23T12:27:26.226Z,74.00
2019-01-23T12:29:57.350Z,84.07
2019-01-23T12:32:28.736Z,64.73
2019-01-23T12:35:02.211Z,49.50
2019-01-23T12:37:33.623Z,77.73
2019-01-23T12:40:06.294Z,71.43
2019-01-23T12:42:37.679Z,81.03
2019-01-23T12:45:14.347Z,89.93
2019-01-23T12:47:47.167Z,76.80
2019-01-23T12:50:24.298Z,78.83
2019-01-23T12:53:04.620Z,61.87
2019-01-23T12:55:36.091Z,84.47
2019-01-23T12:58:08.933Z,58.20
2019-01-23T13:00:40.760Z,61.13
2019-01-23T13:03:12.153Z,81.80
2019-01-23T13:05:43.702Z,84.90
2019-01-23T13:08:14.940Z,69.47
2019-01-23T13:10:46.185Z,78.73
2019-01-23T13:13:19.198Z,73.43
2019-01-23T13:15:50.403Z,78.10
2019-01-23T13:18:21.641Z,49.07
2019-01-23T13:20:52.702Z,58.73
2019-01-23T13:23:23.621Z,77.47
2019-01-23T13:25:54.725Z,65.40
2019-01-23T13:28:25.838Z,81.10
2019-01-23T13:30:56.989Z,79.17
2019-01-23T13:33:30.859Z,62.40
2019-01-23T13:36:05.144Z,73.23
2019-01-23T13:38:44.232Z,93.77
2019-01-23T13:41:17.033Z,99.47
2019-01-23T13:43:49.594Z,70.57
2019-01-23T13:46:20.641Z,76.90
2019-01-23T13:48:51.811Z,74.13
2019-01-23T13:51:25.762Z,68.50
2019-01-23T13:53:56.862Z,76.47
2019-01-23T13:56:27.857Z,81.00
2019-01-23T13:59:01.221Z,86.00
2019-01-23T14:01:34.241Z,79.30
2019-01-23T14:04:07.010Z,73.50
2019-01-23T14:06:38.181Z,74.27
2019-01-23T14:09:09.456Z,71.67
2019-01-23T14:11:40.670Z,85.40
2019-01-23T14:14:11.948Z,82.90
2019-01-23T14:16:43.038Z,77.70
2019-01-23T14:19:13.945Z,59.30
2019-01-23T14:21:45.097Z,61.23
2019-01-23T14:24:16.101Z,72.40
2019-01-23T14:26:47.062Z,77.23
2019-01-23T14:29:19.599Z,66.43
2019-01-23T14:31:50.606Z,72.57
2019-01-23T14:34:21.680Z,83.47
2019-01-23T14:36:53.751Z,75.93
2019-01-23T14:39:24.879Z,84.37
2019-01-23T14:41:59.114Z,78.90
2019-01-23T14:44:30.284Z,81.40
2019-01-23T14:47:01.399Z,92.77
2019-01-23T14:49:32.732Z,88.53
2019-01-23T14:52:04.080Z,93.80
2019-01-23T14:54:35.386Z,71.93
2019-01-23T14:57:06.453Z,90.67
2019-01-23T14:59:37.500Z,79.10
2019-01-23T15:02:10.393Z,97.07
2019-01-23T15:04:41.703Z,83.87
2019-01-23T15:07:12.750Z,84.63
2019-01-23T15:09:55.695Z,88.37
2019-01-23T15:12:26.749Z,98.93
2019-01-23T15:14:57.826Z,87.33
2019-01-23T15:17:30.247Z,82.20
2019-01-23T15:20:02.232Z,84.30
2019-01-23T15:22:37.503Z,95.97
2019-01-23T15:25:09.787Z,87.70
2019-01-23T15:27:40.755Z,94.50
2019-01-23T15:30:14.377Z,79.50
2019-01-23T15:32:45.288Z,86.23
2019-01-23T15:35:17.047Z,92.33
2019-01-23T15:37:49.828Z,86.30
2019-01-23T15:40:25.191Z,97.23
2019-01-23T15:42:56.287Z,83.53
2019-01-23T15:45:28.308Z,90.90
2019-01-23T15:47:59.322Z,84.10
2019-01-23T15:50:30.508Z,83.93
2019-01-23T15:53:01.793Z,84.80
2019-01-23T15:55:33.432Z,91.53
2019-01-23T15:58:05.195Z,87.40
2019-01-23T16:00:36.611Z,103.67
2019-01-23T16:03:09.557Z,97.97
2019-01-23T16:05:41.510Z,94.80
2019-01-23T16:08:13.139Z,108.53
2019-01-23T16:10:44.563Z,85.77
2019-01-23T16:13:16.554Z,101.97
2019-01-23T16:15:47.867Z,94.40
2019-01-23T16:18:18.988Z,91.63
2019-01-23T16:20:50.554Z,112.97
2019-01-23T16:23:22.069Z,82.10
2019-01-23T16:25:53.321Z,129.03
2019-01-23T16:28:24.328Z,107.67
2019-01-23T16:30:56.028Z,94.13
2019-01-23T16:33:28.283Z,115.73
2019-01-23T16:35:59.375Z,89.63
2019-01-23T16:38:30.395Z,104.97
2019-01-23T16:41:01.868Z,102.23
2019-01-23T16:43:32.955Z,94.97
2019-01-23T16:46:04.575Z,103.77
2019-01-23T16:48:36.173Z,90.17
2019-01-23T16:51:07.316Z,117.47
2019-01-23T16:53:38.312Z,89.87
2019-01-23T16:56:09.779Z,104.70
2019-01-23T16:58:40.903Z,100.30
2019-01-23T17:01:12.223Z,116.67
2019-01-23T17:03:43.611Z,97.47
2019-01-23T17:06:14.800Z,98.83
2019-01-23T17:08:48.741Z,106.43
2019-01-23T17:11:21.685Z,103.13
2019-01-23T17:13:52.855Z,104.87
2019-01-23T17:16:24.194Z,114.80
2019-01-23T17:18:55.581Z,113.10
2019-01-23T17:21:29.379Z,114.97
2019-01-23T17:24:00.444Z,112.17
2019-01-23T17:26:31.594Z,101.87
2019-01-23T17:29:02.716Z,118.23
2019-01-23T17:31:33.772Z,110.20
2019-01-23T17:34:04.915Z,114.77
2019-01-23T17:36:38.712Z,116.60
2019-01-23T17:39:11.199Z,107.47
2019-01-23T17:41:42.331Z,100.40
2019-01-23T17:44:13.515Z,112.10
2019-01-23T17:46:44.816Z,107.97
2019-01-23T17:49:18.305Z,120.57
2019-01-23T17:51:49.761Z,113.33
2019-01-23T17:54:20.935Z,114.10
2019-01-23T17:56:54.849Z,109.00
2019-01-23T17:59:28.561Z,127.17
2019-01-23T18:02:00.808Z,123.80
2019-01-23T18:04:32.376Z,124.43
2019-01-23T18:07:03.760Z,118.70
2019-01-23T18:09:35.042Z,109.63
2019-01-23T18:12:07.165Z,119.00
2019-01-23T18:14:38.187Z,109.80
2019-01-23T18:17:09.191Z,108.20
2019-01-23T18:19:40.100Z,124.93
2019-01-23T18:22:11.108Z,112.10
2019-01-23T18:24:42.468Z,120.10
2019-01-23T18:27:15.379Z,112.13
2019-01-23T18:29:47.157Z,130.23
2019-01-23T18:32:18.178Z,121.00
2019-01-23T18:36:20.950Z,117.80
2019-01-23T18:39:09.350Z,119.00
2019-01-23T18:42:08.868Z,122.90
2019-01-23T18:45:38.343Z,108.27
2019-01-23T18:49:10.386Z,123.07
2019-01-23T18:51:52.344Z,126.87
2019-01-23T18:54:23.672Z,120.60
2019-01-23T18:56:54.686Z,120.03
2019-01-23T18:59:25.740Z,143.27
2019-01-23T19:01:56.915Z,114.67
2019-01-23T19:04:27.835Z,121.23
2019-01-23T19:07:00.060Z,143.10
2019-01-23T19:09:31.046Z,140.80
2019-01-23T19:12:01.968Z,127.77
2019-01-23T19:14:33.028Z,123.97
2019-01-23T19:17:04.632Z,113.20
2019-01-23T19:19:36.728Z,135.70
2019-01-23T19:22:07.986Z,132.47
2019-01-23T19:24:39.578Z,120.93
2019-01-23T19:27:11.035Z,137.80
2019-01-23T19:29:43.054Z,153.47
2019-01-23T19:34:48.019Z,135.73
2019-01-23T19:37:19.162Z,129.70
2019-01-23T19:39:50.325Z,132.70
2019-01-23T19:42:21.613Z,136.23
2019-01-23T19:44:52.585Z,134.10
2019-01-23T19:47:23.675Z,140.20
2019-01-23T19:49:56.666Z,131.40
2019-01-23T19:52:27.689Z,139.97
2019-01-23T19:54:58.639Z,138.40
2019-01-23T19:57:31.229Z,132.80
2019-01-23T20:00:02.250Z,154.20
2019-01-23T20:02:33.528Z,132.50
2019-01-23T20:05:05.281Z,154.43
2019-01-23T20:07:36.353Z,121.33
2019-01-23T20:10:14.410Z,159.40
2019-01-23T20:12:44.368Z,137.30
2019-01-23T20:15:17.643Z,130.03
2019-01-23T20:17:49.403Z,134.40
2019-01-23T20:20:20.806Z,153.83
2019-01-23T20:22:52.082Z,130.30
2019-01-23T20:25:25.356Z,146.10
2019-01-23T20:27:56.715Z,140.80
2019-01-23T20:30:37.699Z,144.73
2019-01-23T20:33:08.755Z,135.17
2019-01-23T20:35:39.907Z,147.60
2019-01-23T20:38:10.922Z,137.40
2019-01-23T20:40:42.355Z,161.53
2019-01-23T20:43:13.453Z,145.43
2019-01-23T20:45:44.701Z,134.47
2019-01-23T20:48:15.666Z,150.43
2019-01-23T20:51:06.201Z,142.37
2019-01-23T20:53:37.289Z,138.67
2019-01-23T20:56:08.534Z,143.07
2019-01-23T20:58:40.549Z,159.47
2019-01-23T21:01:11.605Z,149.90
2019-01-23T21:03:42.681Z,163.60
2019-01-23T21:06:14.070Z,154.97
2019-01-23T21:08:45.435Z,143.73
2019-01-23T21:11:16.425Z,124.77
2019-01-23T21:13:47.444Z,151.70
2019-01-23T21:16:18.647Z,158.77
2019-01-23T21:18:49.750Z,138.20
2019-01-23T21:21:20.801Z,153.60
2019-01-23T21:23:51.735Z,162.07
2019-01-23T21:26:22.796Z,139.53
2019-01-23T21:28:54.869Z,135.80
2019-01-23T21:31:25.957Z,179.23
2019-01-23T21:33:56.915Z,172.00
2019-01-23T21:36:29.352Z,155.87
2019-01-23T21:39:00.394Z,171.07
2019-01-23T21:41:33.175Z,145.10
2019-01-23T21:44:04.682Z,180.93
2019-01-23T21:46:36.123Z,158.13
2019-01-23T21:49:07.726Z,171.03
2019-01-23T21:51:38.886Z,173.77
2019-01-23T21:54:18.149Z,172.33
2019-01-23T21:56:49.187Z,159.47
2019-01-23T21:59:20.149Z,174.83
2019-01-23T22:01:51.088Z,169.07
2019-01-23T22:04:22.064Z,177.83
2019-01-23T22:06:53.022Z,183.50
2019-01-23T22:09:23.973Z,163.07
2019-01-23T22:11:55.077Z,182.23
2019-01-23T22:14:26.068Z,180.80
2019-01-23T22:16:57.053Z,155.63
2019-01-23T22:19:28.020Z,163.37
2019-01-23T22:21:58.929Z,176.90
2019-01-23T22:24:29.929Z,163.97
2019-01-23T22:27:07.251Z,145.77
2019-01-23T22:29:41.383Z,141.30
2019-01-23T22:32:12.830Z,145.90
2019-01-23T22:34:44.107Z,147.20
2019-01-23T22:37:15.409Z,150.67
2019-01-23T22:39:46.997Z,143.13
2019-01-23T22:42:18.111Z,157.90
2019-01-23T22:44:50.099Z,160.03
2019-01-23T22:47:21.432Z,151.47
2019-01-23T22:49:52.453Z,147.33
2019-01-23T22:52:23.518Z,151.00
2019-01-23T22:54:54.450Z,157.13
2019-01-23T22:57:25.548Z,131.00
2019-01-23T22:59:56.530Z,110.03
2019-01-23T23:02:28.042Z,145.77
2019-01-23T23:04:58.936Z,134.63
2019-01-23T23:07:30.398Z,115.20
2019-01-23T23:10:01.643Z,143.90
2019-01-23T23:12:32.650Z,126.57
2019-01-23T23:15:03.819Z,138.53
2019-01-23T23:17:34.930Z,107.67
2019-01-23T23:20:06.951Z,119.03
2019-01-23T23:22:37.961Z,105.30
2019-01-23T23:25:10.482Z,127.67
2019-01-23T23:27:41.416Z,131.77
2019-01-23T23:30:14.160Z,94.77
2019-01-23T23:32:45.404Z,107.47
2019-01-23T23:35:16.551Z,140.20
2019-01-23T23:37:48.234Z,116.00
2019-01-23T23:40:19.482Z,112.23
2019-01-23T23:42:50.748Z,117.33
2019-01-23T23:45:22.505Z,112.77
2019-01-23T23:47:53.852Z,97.93
2019-01-23T23:50:25.126Z,115.17
2019-01-23T23:52:57.447Z,102.93
2019-01-23T23:55:28.486Z,104.97
2019-01-23T23:57:59.971Z,112.30
